Time;durP1;ratioP1;P1;durP2;ratioP2;P2;SDS_P1;SDS_P2;PMS_P1;PMS_P2;Temp;Humidity;BMP_temperature;BMP_pressure;BME280_temperature;BME280_humidity;BME280_pressure;Samples;Min_cycle;Max_cycle;Signal;HPM_P1;HPM_P2
2023/01/27 00:00:17;;;;;;;63.60;56.55;;;;;;;4.01;100.00;100613.06;5052742;28;20056;-80
2023/01/27 00:02:45;;;;;;;60.53;54.20;;;;;;;4.31;100.00;100611.56;5051942;28;20040;-80
2023/01/27 00:05:13;;;;;;;61.25;54.88;;;;;;;4.20;100.00;100617.16;5052780;28;20060;-80
2023/01/27 00:07:45;;;;;;;61.60;55.38;;;;;;;4.50;100.00;100618.25;5053636;28;20045;-80
2023/01/27 00:10:12;;;;;;;;;;;;;;;4.45;100.00;100606.59;5054179;28;20076;-81
2023/01/27 00:15:25;;;;;;;57.40;51.70;;;;;;;4.81;100.00;100618.31;5051237;28;20532;-81
2023/01/27 00:17:52;;;;;;;63.50;56.72;;;;;;;4.23;100.00;100627.34;5052904;28;20126;-80
2023/01/27 00:24:34;;;;;;;59.40;53.40;;;;;;;4.25;100.00;100606.97;5053184;28;20049;-81
2023/01/27 00:25:59;;;;;;;57.65;52.00;;;;;;;4.76;100.00;100604.84;5050041;28;20052;-81
2023/01/27 00:28:29;;;;;;;54.85;49.20;;;;;;;4.96;100.00;100589.47;5053489;28;20132;-81
2023/01/27 00:30:58;;;;;;;63.80;57.17;;;;;;;4.47;100.00;100588.84;5053359;28;20087;-80
2023/01/27 00:33:24;;;;;;;61.53;55.63;;;;;;;4.68;100.00;100590.91;5052521;28;20127;-81
2023/01/27 00:35:57;;;;;;;58.53;52.67;;;;;;;3.84;100.00;100588.63;5052282;28;20155;-80
2023/01/27 00:38:23;;;;;;;58.95;53.25;;;;;;;4.47;100.00;100580.94;5053270;28;20481;-81
2023/01/27 00:43:30;;;;;;;65.80;59.33;;;;;;;4.32;100.00;100573.75;5047705;28;20041;-81
2023/01/27 00:45:59;;;;;;;63.42;57.00;;;;;;;4.00;100.00;100568.56;5052875;28;20517;-81
2023/01/27 00:48:25;;;;;;;63.78;56.97;;;;;;;3.74;100.00;100571.38;5053102;28;20049;-80
2023/01/27 00:50:52;;;;;;;61.25;55.38;;;;;;;3.90;100.00;100566.94;5052075;28;20045;-81
2023/01/27 00:53:19;;;;;;;71.65;64.40;;;;;;;4.11;100.00;100571.69;5052303;28;20102;-80
2023/01/27 00:55:46;;;;;;;64.53;55.85;;;;;;;3.48;100.00;100575.00;5051956;28;20498;-80
2023/01/27 00:58:13;;;;;;;62.88;56.25;;;;;;;3.67;100.00;100579.09;5052934;28;20161;-81
2023/01/27 01:00:40;;;;;;;60.60;54.25;;;;;;;3.82;100.00;100587.97;5052382;28;20107;-81
2023/01/27 01:03:09;;;;;;;58.13;52.40;;;;;;;3.65;100.00;100589.75;5051843;28;20568;-80
2023/01/27 01:05:35;;;;;;;59.38;52.83;;;;;;;3.46;100.00;100584.84;5056193;28;20472;-81
2023/01/27 01:08:02;;;;;;;54.47;49.38;;;;;;;3.84;100.00;100593.03;5056079;28;20568;-82
2023/01/27 01:10:29;;;;;;;58.95;53.38;;;;;;;4.05;100.00;100590.72;5056502;28;20049;-80
2023/01/27 01:12:56;;;;;;;58.92;53.40;;;;;;;4.12;100.00;100590.91;5055865;28;20047;-81
2023/01/27 01:15:22;;;;;;;59.55;53.75;;;;;;;3.84;100.00;100603.56;5055913;28;20603;-81
2023/01/27 01:17:49;;;;;;;58.80;52.83;;;;;;;3.86;100.00;100589.25;5055744;28;20049;-80
2023/01/27 01:20:17;;;;;;;58.85;52.63;;;;;;;3.50;100.00;100591.38;5055843;28;20102;-80
2023/01/27 01:22:44;;;;;;;61.15;52.92;;;;;;;3.29;100.00;100589.22;5056438;28;20476;-80
2023/01/27 01:25:11;;;;;;;58.75;52.15;;;;;;;3.81;100.00;100583.72;5056174;28;20049;-80
2023/01/27 01:27:37;;;;;;;57.90;51.78;;;;;;;3.33;100.00;100587.94;5055380;28;20488;-81
2023/01/27 01:30:05;;;;;;;56.72;50.90;;;;;;;3.67;100.00;100592.25;5055909;28;20083;-80
2023/01/27 01:32:31;;;;;;;58.75;52.83;;;;;;;3.65;100.00;100584.50;5055913;28;20057;-80
2023/01/27 01:34:58;;;;;;;56.40;50.72;;;;;;;3.40;100.00;100581.06;5055311;28;20091;-80
2023/01/27 01:37:26;;;;;;;59.75;53.92;;;;;;;4.44;100.00;100576.84;5051814;28;20045;-80
2023/01/27 01:39:53;;;;;;;58.13;52.50;;;;;;;3.71;100.00;100576.97;5056063;28;20053;-80
2023/01/27 01:42:19;;;;;;;57.50;51.58;;;;;;;4.11;100.00;100570.84;5055214;28;20057;-80
2023/01/27 01:44:46;;;;;;;55.20;49.65;;;;;;;3.59;100.00;100568.59;5055577;28;20044;-80
2023/01/27 01:47:16;;;;;;;56.05;50.42;;;;;;;3.68;100.00;100565.78;5055732;28;20045;-80
2023/01/27 01:49:46;;;;;;;54.10;49.35;;;;;;;4.44;100.00;100555.81;5055261;28;20590;-80
2023/01/27 01:52:16;;;;;;;61.38;55.58;;;;;;;4.59;100.00;100540.94;5056461;28;20102;-80
2023/01/27 01:54:48;;;;;;;54.72;50.10;;;;;;;4.11;100.00;100540.13;5055599;28;20048;-81
2023/01/27 01:57:19;;;;;;;55.30;50.95;;;;;;;4.39;100.00;100539.72;5055517;28;20057;-80
2023/01/27 01:59:50;;;;;;;57.40;52.55;;;;;;;4.18;100.00;100540.28;5055611;28;20584;-81
2023/01/27 02:02:20;;;;;;;59.95;54.90;;;;;;;4.03;100.00;100542.78;5054747;28;20074;-80
2023/01/27 02:04:53;;;;;;;56.10;51.00;;;;;;;3.83;100.00;100541.50;5054889;28;20481;-80
2023/01/27 02:07:26;;;;;;;53.00;48.33;;;;;;;3.43;100.00;100538.72;5055814;28;20048;-80
2023/01/27 02:09:56;;;;;;;56.50;52.03;;;;;;;4.57;100.00;100532.44;5051688;28;20101;-80
2023/01/27 02:12:23;;;;;;;57.53;52.92;;;;;;;4.16;100.00;100536.19;5055682;28;20049;-80
2023/01/27 02:14:49;;;;;;;58.60;53.55;;;;;;;4.09;100.00;100533.41;5054393;28;20099;-80
2023/01/27 02:17:17;;;;;;;57.50;52.72;;;;;;;4.15;100.00;100534.53;5054545;28;20134;-80
2023/01/27 02:19:55;;;;;;;52.83;48.45;;;;;;;3.89;100.00;100528.50;5054365;28;20494;-80
2023/01/27 02:22:29;;;;;;;55.53;50.53;;;;;;;3.44;100.00;100529.03;5055376;28;20057;-80
2023/01/27 02:25:04;;;;;;;54.78;50.00;;;;;;;3.86;100.00;100544.59;5056527;28;20052;-80
2023/01/27 02:27:33;;;;;;;56.80;51.88;;;;;;;3.98;100.00;100531.13;5050361;28;20504;-80
2023/01/27 02:29:59;;;;;;;56.60;51.85;;;;;;;3.61;100.00;100533.28;5052367;28;20049;-81
2023/01/27 02:32:26;;;;;;;57.42;52.40;;;;;;;3.77;100.00;100529.00;5057026;28;20518;-80
2023/01/27 02:34:55;;;;;;;51.50;47.00;;;;;;;3.13;100.00;100508.66;5058550;28;20048;-81
2023/01/27 02:37:24;;;;;;;51.83;47.60;;;;;;;3.14;100.00;100510.28;5059250;28;20533;-80
2023/01/27 02:39:52;;;;;;;51.78;47.85;;;;;;;3.82;100.00;100511.78;5057110;28;20107;-80
2023/01/27 02:42:19;;;;;;;51.35;46.92;;;;;;;3.78;100.00;100499.13;5059011;28;20045;-80
2023/01/27 02:44:47;;;;;;;50.40;45.95;;;;;;;3.61;100.00;100496.53;5057619;28;20045;-80
2023/01/27 02:47:14;;;;;;;51.88;47.38;;;;;;;3.56;100.00;100504.06;5057304;28;20099;-81
2023/01/27 02:49:41;;;;;;;54.42;49.88;;;;;;;3.70;100.00;100514.91;5058024;28;20053;-81
2023/01/27 02:52:07;;;;;;;54.88;49.97;;;;;;;3.58;100.00;100515.25;5052832;28;20048;-81
2023/01/27 02:54:34;;;;;;;53.88;48.72;;;;;;;3.27;100.00;100504.59;5052307;28;20579;-82
2023/01/27 02:57:01;;;;;;;50.15;46.08;;;;;;;3.76;100.00;100490.59;5052429;28;20048;-81
2023/01/27 02:59:27;;;;;;;62.95;51.65;;;;;;;4.07;100.00;100488.88;5052380;28;20048;-81
2023/01/27 03:01:56;;;;;;;56.40;51.58;;;;;;;4.17;100.00;100472.09;5052055;28;20496;-80
2023/01/27 03:04:22;;;;;;;56.90;51.67;;;;;;;4.07;100.00;100473.09;5043651;28;20044;-81
2023/01/27 03:06:49;;;;;;;63.38;57.97;;;;;;;4.26;100.00;100457.91;5052713;28;20107;-81
2023/01/27 03:09:16;;;;;;;57.92;52.78;;;;;;;3.32;100.00;100449.75;5052511;28;20053;-80
2023/01/27 03:19:56;;;;;;;53.03;48.72;;;;;;;3.98;100.00;100458.34;5052436;28;20056;-81
2023/01/27 03:22:23;;;;;;;52.83;48.53;;;;;;;3.45;100.00;100457.16;5053111;28;20053;-80
2023/01/27 03:24:49;;;;;;;51.97;47.88;;;;;;;3.94;100.00;100446.56;5051743;28;20514;-81
2023/01/27 03:27:16;;;;;;;50.17;45.80;;;;;;;3.96;100.00;100428.78;5051825;28;20090;-80
2023/01/27 03:29:55;;;;;;;53.65;49.00;;;;;;;3.66;100.00;100430.34;5051632;28;20057;-80
2023/01/27 03:32:23;;;;;;;53.22;48.80;;;;;;;3.69;100.00;100419.50;5051244;28;20110;-81
2023/01/27 03:34:50;;;;;;;53.50;49.22;;;;;;;3.80;100.00;100434.09;5051540;28;20048;-80
2023/01/27 03:48:17;;;;;;;50.67;46.60;;;;;;;3.90;100.00;100432.09;5050378;28;20068;-81
2023/01/27 03:50:44;;;;;;;50.17;46.08;;;;;;;3.40;100.00;100434.00;5051853;28;20048;-81
2023/01/27 03:53:11;;;;;;;50.50;46.17;;;;;;;3.28;100.00;100445.03;5051286;28;20048;-80
2023/01/27 03:55:38;;;;;;;49.30;45.28;;;;;;;3.83;100.00;100458.22;5051145;28;20045;-81
2023/01/27 03:58:18;;;;;;;54.40;49.67;;;;;;;3.20;100.00;100464.22;5051973;28;20045;-81
2023/01/27 04:00:46;;;;;;;51.97;47.58;;;;;;;3.28;100.00;100460.78;5051330;28;20415;-81
2023/01/27 04:08:47;;;;;;;53.55;48.20;;;;;;;3.51;100.00;100450.41;5050981;28;20056;-81
2023/01/27 04:14:00;;;;;;;53.42;48.53;;;;;;;3.50;100.00;100456.66;5051121;28;20142;-80
2023/01/27 04:16:29;;;;;;;51.17;46.80;;;;;;;3.27;100.00;100467.84;5051100;28;20063;-81
2023/01/27 04:18:58;;;;;;;56.38;50.63;;;;;;;3.12;100.00;100472.91;5050909;28;20052;-81
2023/01/27 04:21:25;;;;;;;51.65;46.83;;;;;;;3.80;100.00;100473.50;5051991;28;20107;-80
2023/01/27 04:23:52;;;;;;;52.83;48.17;;;;;;;4.15;100.00;100467.00;5051221;28;20107;-80
2023/01/27 04:26:20;;;;;;;53.55;48.38;;;;;;;3.90;100.00;100480.22;5051662;28;20048;-81
2023/01/27 04:28:47;;;;;;;55.72;50.47;;;;;;;3.68;100.00;100484.34;5050759;28;20049;-80
2023/01/27 04:31:15;;;;;;;55.60;49.78;;;;;;;3.72;100.00;100481.41;5050939;28;20045;-80
2023/01/27 04:33:42;;;;;;;53.45;48.17;;;;;;;3.27;100.00;100488.00;5046128;28;20124;-80
2023/01/27 04:36:13;;;;;;;55.03;49.47;;;;;;;3.37;100.00;100491.28;5051426;28;20072;-81
2023/01/27 04:38:39;;;;;;;56.80;51.17;;;;;;;3.47;100.00;100486.69;5059315;28;20057;-80
2023/01/27 04:41:06;;;;;;;55.10;49.80;;;;;;;3.35;100.00;100488.81;5060808;28;20563;-81
2023/01/27 04:43:33;;;;;;;54.00;48.75;;;;;;;3.65;100.00;100484.69;5061906;28;20091;-81
2023/01/27 04:45:59;;;;;;;55.70;50.25;;;;;;;3.29;100.00;100489.47;5061340;28;20060;-80
2023/01/27 04:48:26;;;;;;;58.95;52.65;;;;;;;3.28;100.00;100490.47;5061858;28;20053;-80
2023/01/27 04:50:53;;;;;;;53.83;48.67;;;;;;;3.78;100.00;100494.72;5058356;28;20506;-81
2023/01/27 04:53:21;;;;;;;55.88;50.92;;;;;;;4.42;100.00;100481.53;5062961;28;20045;-81
2023/01/27 04:55:49;;;;;;;55.85;50.35;;;;;;;4.29;100.00;100481.25;5062203;28;20044;-81
2023/01/27 04:58:17;;;;;;;58.25;52.88;;;;;;;3.82;100.00;100482.88;5058806;28;20052;-82
2023/01/27 05:00:44;;;;;;;58.45;52.65;;;;;;;3.98;100.00;100489.88;5062102;28;20489;-81
2023/01/27 05:03:11;;;;;;;53.97;49.35;;;;;;;4.34;100.00;100497.34;5061364;28;20077;-80
2023/01/27 05:05:38;;;;;;;58.63;52.97;;;;;;;3.85;100.00;100500.94;5061848;28;20534;-80
2023/01/27 05:08:06;;;;;;;54.47;49.53;;;;;;;3.84;100.00;100501.09;5061440;28;20508;-80
2023/01/27 05:10:35;;;;;;;56.25;51.20;;;;;;;3.77;100.00;100494.88;5060894;28;20053;-81
2023/01/27 05:13:01;;;;;;;55.35;50.17;;;;;;;3.59;100.00;100506.38;5062837;28;20119;-81
2023/01/27 05:15:28;;;;;;;54.45;49.47;;;;;;;4.35;100.00;100499.78;5062412;28;20124;-80
2023/01/27 05:17:55;;;;;;;54.78;49.70;;;;;;;4.00;100.00;100495.81;5061613;28;20071;-81
2023/01/27 05:20:22;;;;;;;52.88;48.20;;;;;;;3.82;100.00;100498.63;5061305;28;20041;-80
2023/01/27 05:22:51;;;;;;;55.13;49.95;;;;;;;4.47;100.00;100488.91;5061440;28;20065;-80
2023/01/27 05:25:17;;;;;;;51.92;47.22;;;;;;;4.48;100.00;100480.84;5013615;28;20433;-80
2023/01/27 05:27:45;;;;;;;58.58;53.28;;;;;;;4.64;100.00;100479.13;5078229;28;20107;-80
2023/01/27 05:30:13;;;;;;;57.47;52.92;;;;;;;4.96;100.00;100478.94;5069765;28;20148;-80
2023/01/27 05:32:40;;;;;;;54.50;49.78;;;;;;;4.35;100.00;100468.22;5068298;28;20075;-81
2023/01/27 05:35:07;;;;;;;52.22;48.10;;;;;;;4.15;100.00;100468.84;5076526;28;20049;-80
2023/01/27 05:37:34;;;;;;;56.88;51.63;;;;;;;4.00;100.00;100468.72;5073749;28;20476;-80
2023/01/27 05:40:01;;;;;;;53.97;49.28;;;;;;;3.83;100.00;100462.66;5070410;28;20049;-80
2023/01/27 05:42:27;;;;;;;54.33;49.67;;;;;;;4.23;100.00;100447.75;5070359;28;20045;-81
2023/01/27 05:44:55;;;;;;;55.97;51.38;;;;;;;3.66;100.00;100444.31;5068900;28;20041;-80
2023/01/27 05:47:22;;;;;;;54.63;50.10;;;;;;;3.98;100.00;100445.22;5039044;28;20048;-81
2023/01/27 05:49:49;;;;;;;54.20;49.10;;;;;;;4.27;100.00;100452.50;5071382;28;20049;-81
2023/01/27 05:52:16;;;;;;;54.60;50.10;;;;;;;4.61;100.00;100448.72;5072619;28;20052;-80
2023/01/27 05:54:42;;;;;;;60.50;55.67;;;;;;;4.12;100.00;100455.03;5069383;28;20067;-81
2023/01/27 05:57:09;;;;;;;57.83;53.08;;;;;;;4.63;100.00;100459.91;5069218;28;20491;-81
2023/01/27 05:59:36;;;;;;;54.88;50.15;;;;;;;3.79;100.00;100472.69;5073794;28;20102;-80
2023/01/27 06:02:04;;;;;;;55.38;50.60;;;;;;;3.28;100.00;100464.22;5066854;28;20075;-80
2023/01/27 06:04:31;;;;;;;51.42;47.30;;;;;;;3.56;100.00;100456.81;5069347;28;20079;-80
2023/01/27 06:06:57;;;;;;;53.70;49.00;;;;;;;3.47;100.00;100464.84;5066314;28;20118;-80
2023/01/27 06:09:24;;;;;;;49.13;44.78;;;;;;;3.52;100.00;100478.31;5071828;28;20138;-80
2023/01/27 06:11:51;;;;;;;49.00;44.75;;;;;;;3.59;100.00;100487.16;5067755;28;20049;-80
2023/01/27 06:14:18;;;;;;;51.20;46.60;;;;;;;3.46;100.00;100464.03;5072812;28;20044;-81
2023/01/27 06:16:46;;;;;;;48.53;44.53;;;;;;;3.57;100.00;100479.47;5066988;28;20066;-80
2023/01/27 06:19:14;;;;;;;53.53;49.08;;;;;;;3.35;100.00;100482.75;5066071;28;20044;-80
2023/01/27 06:21:41;;;;;;;51.85;47.78;;;;;;;3.94;100.00;100482.53;5075632;28;20048;-81
2023/01/27 06:24:07;;;;;;;51.72;47.83;;;;;;;4.32;100.00;100481.72;5063876;28;20045;-80
2023/01/27 06:26:34;;;;;;;54.72;50.03;;;;;;;3.27;100.00;100488.00;5068725;28;20052;-80
2023/01/27 06:29:01;;;;;;;52.78;48.20;;;;;;;3.40;100.00;100483.09;5067915;28;20044;-81
2023/01/27 06:31:28;;;;;;;53.65;48.97;;;;;;;3.25;100.00;100477.66;5073415;28;20127;-80
2023/01/27 06:33:54;;;;;;;52.33;48.58;;;;;;;3.41;100.00;100484.72;5071948;28;20052;-80
2023/01/27 06:36:22;;;;;;;47.28;43.42;;;;;;;3.93;100.00;100486.13;5069946;28;20129;-80
2023/01/27 06:38:50;;;;;;;47.90;43.90;;;;;;;3.73;100.00;100486.50;5070195;28;20053;-80
2023/01/27 06:41:16;;;;;;;49.95;46.03;;;;;;;3.83;100.00;100474.00;5072662;28;20044;-80
2023/01/27 06:43:43;;;;;;;54.05;49.45;;;;;;;3.62;100.00;100471.06;5072615;28;20045;-80
2023/01/27 06:46:10;;;;;;;49.60;45.50;;;;;;;4.30;100.00;100464.50;5070606;28;20049;-80
2023/01/27 06:48:37;;;;;;;52.15;47.65;;;;;;;4.01;100.00;100467.72;5071813;28;20106;-80
2023/01/27 06:51:05;;;;;;;49.92;45.60;;;;;;;4.11;100.00;100457.81;5070370;28;20525;-80
2023/01/27 06:53:34;;;;;;;48.42;44.20;;;;;;;3.62;100.00;100452.69;5077753;28;20580;-80
2023/01/27 06:56:01;;;;;;;49.28;45.25;;;;;;;3.41;100.00;100451.41;5068958;28;20504;-80
2023/01/27 06:58:28;;;;;;;48.33;44.53;;;;;;;3.74;100.00;100447.91;5072189;28;20467;-80
2023/01/27 07:00:55;;;;;;;48.70;44.45;;;;;;;3.43;100.00;100443.38;5069445;28;20097;-80
2023/01/27 07:03:22;;;;;;;51.17;46.53;;;;;;;3.63;100.00;100441.19;5071423;28;20056;-80
2023/01/27 07:05:49;;;;;;;53.75;49.25;;;;;;;4.18;100.00;100434.31;5069820;28;20502;-80
2023/01/27 07:08:16;;;;;;;54.75;50.22;;;;;;;3.78;100.00;100431.66;5066575;28;20410;-81
2023/01/27 07:10:44;;;;;;;52.97;48.15;;;;;;;3.13;100.00;100443.06;5071324;28;20049;-80
2023/01/27 07:13:12;;;;;;;54.35;49.47;;;;;;;3.26;100.00;100454.84;5070854;28;20053;-80
2023/01/27 07:15:39;;;;;;;53.25;48.78;;;;;;;3.53;100.00;100451.88;5071865;28;20048;-80
2023/01/27 07:18:07;;;;;;;54.83;49.88;;;;;;;3.36;100.00;100464.22;5071642;28;20469;-80
2023/01/27 07:20:33;;;;;;;101.22;69.15;;;;;;;3.42;100.00;100474.06;5070701;28;20503;-80
2023/01/27 07:23:02;;;;;;;53.83;49.33;;;;;;;3.33;100.00;100469.81;5061842;28;20053;-80
2023/01/27 07:25:30;;;;;;;52.70;47.90;;;;;;;2.84;100.00;100482.84;5070714;28;20053;-80
2023/01/27 07:27:59;;;;;;;52.55;47.90;;;;;;;2.88;100.00;100478.13;5062396;28;20085;-80
2023/01/27 07:30:26;;;;;;;53.28;48.88;;;;;;;3.28;100.00;100466.03;5068643;28;20056;-80
2023/01/27 07:32:54;;;;;;;52.13;47.75;;;;;;;3.26;100.00;100460.94;5070771;28;20049;-81
2023/01/27 07:35:21;;;;;;;53.45;48.75;;;;;;;2.54;100.00;100468.53;5066960;28;20037;-80
2023/01/27 07:37:48;;;;;;;55.95;51.08;;;;;;;2.79;100.00;100464.19;5071751;28;20048;-79
2023/01/27 07:40:15;;;;;;;51.67;47.17;;;;;;;2.98;100.00;100465.69;5070702;28;20052;-80
2023/01/27 07:42:42;;;;;;;52.35;47.75;;;;;;;3.36;100.00;100471.25;5070283;28;20050;-80
2023/01/27 07:45:10;;;;;;;55.55;50.53;;;;;;;2.92;100.00;100463.69;5067250;28;20102;-80
2023/01/27 07:47:37;;;;;;;50.58;46.38;;;;;;;2.60;100.00;100473.13;5068028;28;20106;-81
2023/01/27 07:50:04;;;;;;;51.33;46.90;;;;;;;2.30;100.00;100471.91;5068594;28;20069;-80
2023/01/27 07:52:31;;;;;;;49.25;45.33;;;;;;;3.15;100.00;100474.41;5074096;28;20107;-80
2023/01/27 07:54:58;;;;;;;53.75;49.00;;;;;;;2.55;100.00;100479.84;5072860;28;20498;-80
2023/01/27 07:57:25;;;;;;;52.58;47.78;;;;;;;2.71;100.00;100483.31;5063859;28;20083;-80
2023/01/27 07:59:54;;;;;;;54.78;49.85;;;;;;;2.36;100.00;100484.38;5066719;28;20509;-80
2023/01/27 08:02:22;;;;;;;52.13;47.80;;;;;;;2.87;100.00;100474.66;5067937;28;20131;-80
2023/01/27 08:04:49;;;;;;;62.90;56.58;;;;;;;2.53;100.00;100483.44;5068152;28;20045;-80
2023/01/27 08:07:16;;;;;;;86.70;67.55;;;;;;;2.59;100.00;100486.41;5065582;28;20057;-80
2023/01/27 08:09:43;;;;;;;66.50;59.38;;;;;;;2.76;100.00;100477.63;5070698;28;20048;-80
2023/01/27 08:18:55;;;;;;;50.40;46.22;;;;;;;3.49;100.00;100473.41;5068881;28;20051;-81
2023/01/27 08:21:24;;;;;;;51.63;47.22;;;;;;;2.20;100.00;100477.25;5067119;28;20070;-80
2023/01/27 08:23:50;;;;;;;51.40;46.78;;;;;;;2.20;100.00;100465.97;5062598;28;20049;-81
2023/01/27 08:26:17;;;;;;;46.05;42.45;;;;;;;2.61;100.00;100463.50;5065873;28;20053;-80
2023/01/27 08:28:44;;;;;;;48.58;44.58;;;;;;;3.13;100.00;100453.53;5068504;28;20464;-81
2023/01/27 08:31:12;;;;;;;49.92;45.47;;;;;;;2.30;100.00;100456.19;5062358;28;20300;-80
2023/01/27 08:33:41;;;;;;;48.10;44.30;;;;;;;3.21;100.00;100460.63;5071024;28;20087;-80
2023/01/27 08:36:12;;;;;;;49.90;45.72;;;;;;;3.41;100.00;100445.34;5067087;28;20052;-80
2023/01/27 08:38:39;;;;;;;51.63;47.43;;;;;;;3.43;100.00;100438.13;5063939;28;20044;-80
2023/01/27 08:41:07;;;;;;;52.00;47.83;;;;;;;3.21;100.00;100437.00;5065201;28;20044;-81
2023/01/27 08:43:34;;;;;;;51.38;47.15;;;;;;;2.26;100.00;100433.88;5066604;28;20053;-80
2023/01/27 08:46:01;;;;;;;49.85;45.67;;;;;;;2.96;100.00;100425.66;5065736;28;20048;-81
2023/01/27 08:48:28;;;;;;;51.30;47.10;;;;;;;2.48;100.00;100433.31;5068962;28;20053;-80
2023/01/27 08:50:59;;;;;;;51.78;47.40;;;;;;;2.43;100.00;100448.69;5068523;28;20116;-80
2023/01/27 08:53:27;;;;;;;49.35;45.80;;;;;;;2.93;100.00;100452.22;5074094;28;20052;-80
2023/01/27 08:55:57;;;;;;;52.22;47.53;;;;;;;2.13;100.00;100444.00;5065859;28;20465;-80
2023/01/27 08:58:24;;;;;;;50.40;45.85;;;;;;;2.74;100.00;100441.03;5066538;28;20044;-80
2023/01/27 09:00:51;;;;;;;50.85;46.45;;;;;;;2.89;100.00;100438.59;5067691;28;20142;-81
2023/01/27 09:03:18;;;;;;;50.08;45.85;;;;;;;2.97;100.00;100432.56;5064318;28;20426;-81
2023/01/27 09:05:46;;;;;;;58.72;52.38;;;;;;;2.47;100.00;100433.44;5070108;28;20049;-80
2023/01/27 09:08:13;;;;;;;49.58;45.70;;;;;;;3.04;100.00;100428.28;5055183;28;20106;-81
2023/01/27 09:10:41;;;;;;;49.40;45.38;;;;;;;2.54;100.00;100423.94;5069954;28;20045;-81
2023/01/27 09:13:09;;;;;;;51.22;46.88;;;;;;;2.62;100.00;100416.13;5064911;28;20106;-80
2023/01/27 09:15:36;;;;;;;54.17;49.20;;;;;;;2.64;100.00;100418.59;5068273;28;20045;-81
2023/01/27 09:18:03;;;;;;;54.15;49.35;;;;;;;3.21;100.00;100410.75;5062580;28;20468;-80
2023/01/27 09:20:30;;;;;;;50.38;46.40;;;;;;;2.56;100.00;100411.50;5069906;28;20106;-80
2023/01/27 09:22:57;;;;;;;51.33;47.15;;;;;;;2.48;100.00;100408.88;5064017;28;20045;-80
2023/01/27 09:25:24;;;;;;;49.17;45.38;;;;;;;2.93;100.00;100405.81;5074122;28;20045;-80
2023/01/27 09:27:55;;;;;;;48.17;44.65;;;;;;;2.60;100.00;100402.34;5072944;28;20040;-80
2023/01/27 09:30:23;;;;;;;47.95;43.88;;;;;;;1.88;100.00;100409.84;5067787;28;20406;-79
2023/01/27 09:32:50;;;;;;;53.30;48.92;;;;;;;1.36;100.00;100418.53;5063189;28;20118;-80
2023/01/27 09:35:17;;;;;;;48.45;44.63;;;;;;;1.75;100.00;100419.91;5066113;28;20037;-80
2023/01/27 09:37:50;;;;;;;46.40;42.90;;;;;;;2.37;100.00;100410.00;5072401;28;20126;-80
2023/01/27 09:40:29;;;;;;;51.75;47.50;;;;;;;1.79;100.00;100421.25;5064346;28;20052;-80
2023/01/27 09:43:37;;;;;;;48.47;44.42;;;;;;;2.01;100.00;100420.69;5065024;28;20053;-79
2023/01/27 09:46:31;;;;;;;49.28;45.38;;;;;;;1.84;100.00;100429.44;5073334;28;20468;-80
2023/01/27 09:49:32;;;;;;;54.28;49.67;;;;;;;1.31;100.00;100431.25;5060991;28;20118;-80
2023/01/27 09:52:11;;;;;;;49.85;45.85;;;;;;;2.16;100.00;100412.22;5070292;28;20506;-79
2023/01/27 09:54:52;;;;;;;48.70;45.00;;;;;;;1.64;100.00;100402.69;5075883;28;20532;-80
2023/01/27 09:57:34;;;;;;;47.70;43.83;;;;;;;1.78;100.00;100404.69;5065886;28;20041;-79
2023/01/27 10:00:19;;;;;;;48.88;44.75;;;;;;;1.29;100.00;100409.63;5065611;28;20049;-79
2023/01/27 10:03:02;;;;;;;48.47;44.58;;;;;;;1.45;100.00;100408.91;5070047;28;20471;-79
2023/01/27 10:05:53;;;;;;;49.70;45.95;;;;;;;1.63;100.00;100402.81;5068848;28;20041;-79
2023/01/27 10:08:30;;;;;;;47.85;44.13;;;;;;;1.36;100.00;100392.38;5068588;28;20052;-79
2023/01/27 10:11:11;;;;;;;49.38;45.20;;;;;;;1.23;100.00;100399.78;5064917;28;20057;-79
2023/01/27 10:13:51;;;;;;;48.22;44.72;;;;;;;1.42;100.00;100395.31;5069444;28;20049;-79
2023/01/27 10:16:50;;;;;;;51.20;47.05;;;;;;;1.42;100.00;100396.13;5063446;28;20564;-79
2023/01/27 10:19:41;;;;;;;49.05;45.25;;;;;;;0.98;100.00;100388.31;5051203;28;20048;-79
2023/01/27 10:22:17;;;;;;;46.50;42.95;;;;;;;1.53;100.00;100388.03;5072640;28;20591;-80
2023/01/27 10:25:00;;;;;;;51.58;47.13;;;;;;;1.08;100.00;100385.63;5067623;28;20060;-79
2023/01/27 10:27:33;;;;;;;52.63;48.35;;;;;;;1.29;100.00;100383.47;5072951;28;20460;-79
2023/01/27 10:30:05;;;;;;;49.67;45.60;;;;;;;0.85;100.00;100383.50;5061011;28;20048;-79
2023/01/27 10:32:43;;;;;;;52.03;47.22;;;;;;;1.33;100.00;100389.22;5063048;28;20052;-79
2023/01/27 10:35:16;;;;;;;50.78;46.50;;;;;;;0.68;100.00;100381.69;5069318;28;20048;-79
2023/01/27 10:37:52;;;;;;;47.22;43.35;;;;;;;0.79;100.00;100370.19;5068106;28;20048;-79
2023/01/27 10:40:28;;;;;;;47.30;43.60;;;;;;;1.24;100.00;100370.06;5070067;28;20048;-80
2023/01/27 10:43:04;;;;;;;46.70;43.00;;;;;;;0.65;100.00;100376.78;5063546;28;20053;-79
2023/01/27 10:45:37;;;;;;;49.35;45.40;;;;;;;0.77;100.00;100361.69;5065580;28;20045;-79
2023/01/27 10:48:25;;;;;;;48.38;44.67;;;;;;;0.88;100.00;100364.06;5072019;28;20072;-79
2023/01/27 10:50:58;;;;;;;47.03;43.38;;;;;;;1.28;100.00;100355.69;5071090;28;20501;-80
2023/01/27 10:53:29;;;;;;;47.15;43.35;;;;;;;0.93;100.00;100356.56;5059041;28;20056;-79
2023/01/27 10:56:02;;;;;;;46.13;42.67;;;;;;;1.44;100.00;100352.31;5058915;28;20139;-79
2023/01/27 10:58:42;;;;;;;45.10;41.65;;;;;;;0.98;100.00;100350.91;5075215;28;20045;-79
2023/01/27 11:01:13;;;;;;;45.47;41.95;;;;;;;0.90;100.00;100355.06;5071954;28;20048;-80
2023/01/27 11:03:46;;;;;;;57.10;51.53;;;;;;;1.55;100.00;100361.72;5058631;28;20048;-79
2023/01/27 11:06:14;;;;;;;;;;;;;;;1.31;100.00;100357.97;5063007;28;20105;-79
2023/01/27 11:08:45;;;;;;;54.75;49.65;;;;;;;0.69;100.00;100370.25;5060440;28;19927;-79
2023/01/27 11:14:12;;;;;;;46.53;42.97;;;;;;;0.64;100.00;100368.13;5061491;28;20129;-80
2023/01/27 11:16:43;;;;;;;46.92;43.30;;;;;;;0.79;100.00;100357.94;5062367;28;20052;-79
2023/01/27 11:19:19;;;;;;;48.88;44.67;;;;;;;0.71;100.00;100359.66;5069206;28;20040;-80
2023/01/27 11:21:50;;;;;;;54.75;49.35;;;;;;;0.72;100.00;100359.50;5066060;28;20113;-79
2023/01/27 11:24:25;;;;;;;52.40;47.58;;;;;;;0.96;100.00;100366.72;5059344;28;20045;-79
2023/01/27 11:27:00;;;;;;;54.13;48.67;;;;;;;0.71;100.00;100352.66;5070861;28;20057;-79
2023/01/27 11:29:36;;;;;;;52.60;47.63;;;;;;;0.91;100.00;100363.75;5065618;28;20106;-79
2023/01/27 11:32:11;;;;;;;56.05;50.40;;;;;;;0.87;100.00;100354.56;5067179;28;20462;-79
2023/01/27 11:34:44;;;;;;;51.05;46.85;;;;;;;0.75;100.00;100368.84;5069306;28;20041;-79
2023/01/27 11:37:19;;;;;;;66.65;59.65;;;;;;;0.93;100.00;100371.44;5067642;28;20049;-79
2023/01/27 11:39:47;;;;;;;57.72;51.88;;;;;;;0.74;100.00;100365.41;5065367;28;20454;-79
2023/01/27 11:42:14;;;;;;;58.20;52.25;;;;;;;0.76;100.00;100350.41;5065826;28;20049;-79
2023/01/27 11:44:43;;;;;;;47.97;44.25;;;;;;;0.68;100.00;100348.53;5068562;28;20110;-79
2023/01/27 11:47:20;;;;;;;52.40;47.65;;;;;;;0.85;100.00;100344.28;5059929;28;20053;-79
2023/01/27 11:49:51;;;;;;;50.47;46.58;;;;;;;1.36;100.00;100334.81;5063780;28;20506;-79
2023/01/27 11:52:21;;;;;;;50.35;46.15;;;;;;;0.82;100.00;100335.91;5069457;28;20054;-79
2023/01/27 11:54:52;;;;;;;49.17;45.42;;;;;;;1.60;100.00;100336.72;5069989;28;20390;-80
2023/01/27 11:57:22;;;;;;;48.53;44.83;;;;;;;1.07;100.00;100347.38;5066643;28;20056;-80
2023/01/27 11:59:51;;;;;;;47.28;43.28;;;;;;;0.84;100.00;100339.19;5070820;28;20048;-80
2023/01/27 12:02:26;;;;;;;46.47;42.50;;;;;;;0.92;100.00;100347.09;5066292;28;20052;-79
2023/01/27 12:04:59;;;;;;;46.58;42.97;;;;;;;0.86;100.00;100342.47;5067177;28;20129;-79